Ruffin, North Carolina
Current Conditions -  °F | °C
As of 9:53 PM on Tuesday 21 Oct 2014 (Local Time) from KDAN Reporting Station
Broken Clouds Broken Clouds  
Wind Chill: 56°   Ceiling: 9000
Heat Index: 56°   Visibility: 10mi
Dew Point: 41°   Wind: 8mph
Humidity: 57%   Direction: 290°WNW
Pressure: 29.96"   Gusts: NA
Location:  36.45°N, 79.54°W
Report Text: KDAN 220153Z AUTO 29007KT 10SM BKN090 13/05 A2996 RMK AO2 SLP139 T01330050
Loading
Personal Weather Stations






























Interactive Weather Map
Tropical Storm Tracking
New forecast layout! Learn more

10-Day Weather Forecast

Advertisements
Track Severe Weather on mobile